Latest Weather Observations for Cape Bruny AWS

IDT60801

Issued at 6:02 am EST Wednesday 4 May 2016 (issued every 30 minutes, with the page automatically refreshed every 10 minutes)

About weather observations | Map of weather stations | Latest weather observations for TAS | Other Formats
Station Details ID: 094198 Name: CAPE BRUNY (CAPE BRUNY) Lat: -43.49 Lon: 147.14 Height: 59.7 m
Data from the previous 72 hours. | See also: Recent months at Cape Bruny AWS
Date/Time
EST
Temp
°C
App
Temp
°C
Dew
Point
Rel
Hum
%
Delta-T
°C
Wind Press
QNH
hPa
Press
MSL
hPa
Rain
since 9 am
mm
Dir
 
Spd
km/h
Gust
km/h
Spd
kts
Gust
kts
04/06:00am 6.0 0.0 3.3 83 1.1 NNW 24 33 13 18 1000.6 1000.7 6.6
04/05:30am 6.7 -0.9 3.7 81 1.3 NW 33 44 18 24 1000.2 1000.3 6.6
04/05:00am 6.8 -2.0 3.6 80 1.4 NW 39 54 21 29 999.5 999.6 6.6
04/04:38am 6.7 -1.0 3.3 79 1.4 NW 33 52 18 28 998.9 999.0 6.4
04/04:30am 6.7 -0.4 3.5 80 1.4 WNW 30 41 16 22 998.8 998.9 6.4
04/04:00am 6.6 -2.3 3.2 79 1.4 WNW 39 57 21 31 998.5 998.6 6.4
04/03:40am 7.8 -0.7 2.9 71 2.1 NW 37 56 20 30 997.7 997.7 6.0
04/03:30am 7.5 -1.5 2.6 71 2.0 NW 39 54 21 29 997.0 997.0 6.0
04/03:00am 7.5 -2.1 3.6 76 1.7 WNW 43 57 23 31 996.6 996.6 6.0
04/02:43am 7.5 -0.1 3.7 77 1.6 WNW 33 50 18 27 996.5 996.5 6.0
04/02:30am 7.5 -3.4 3.6 76 1.7 WNW 50 63 27 34 996.4 996.4 6.0
04/02:00am 7.2 -1.6 3.8 79 1.5 WNW 39 57 21 31 995.9 995.9 6.0
04/01:37am 6.8 -0.6 4.1 83 1.2 NW 32 50 17 27 996.2 996.2 6.0
04/01:30am 6.7 -1.7 3.7 81 1.3 NW 37 50 20 27 996.2 996.2 6.0
04/01:00am 6.5 -1.5 3.8 83 1.2 NW 35 56 19 30 995.9 995.9 6.0
04/12:49am 6.7 0.1 4.4 85 1.0 NW 28 54 15 29 995.4 995.4 5.8
04/12:30am 6.5 0.2 3.8 83 1.2 NW 26 37 14 20 995.4 995.4 5.6
04/12:10am 6.5 -0.6 3.5 81 1.3 WNW 30 48 16 26 995.2 995.2 5.6
04/12:00am 7.4 0.1 4.4 81 1.3 WNW 32 44 17 24 995.5 995.5 5.0
 
Date/Time
EST
Temp
°C
App
Temp
°C
Dew
Point
Rel
Hum
%
Delta-T
°C
Wind Press
QNH
hPa
Press
MSL
hPa
Rain
since 9 am
mm
Dir
 
Spd
km/h
Gust
km/h
Spd
kts
Gust
kts
03/11:58pm 7.2 -0.2 3.8 79 1.5 WNW 32 44 17 24 995.4 995.4 4.8
03/11:30pm 7.5 -1.5 2.6 71 2.0 NW 39 50 21 27 994.1 994.1 4.4
03/11:00pm 7.5 -0.3 2.8 72 2.0 NW 33 46 18 25 993.5 993.5 4.4
03/10:30pm 7.5 0.1 3.9 78 1.6 NW 32 43 17 23 993.8 993.8 4.4
03/10:00pm 7.9 -1.4 3.2 72 2.0 NW 41 65 22 35 993.5 993.5 4.4
03/09:53pm 7.8 0.7 3.5 74 1.8 NW 30 52 16 28 993.7 993.7 4.4
03/09:30pm 7.1 1.1 3.5 78 1.5 NNW 24 35 13 19 993.3 993.3 4.4
03/09:00pm 7.2 -0.2 3.8 79 1.5 NW 32 41 17 22 992.6 992.6 4.4
03/08:47pm 7.1 -0.4 3.7 79 1.5 NW 32 56 17 30 992.5 992.5 4.4
03/08:30pm 7.7 1.5 4.1 78 1.6 NW 26 41 14 22 992.5 992.5 4.0
03/08:00pm 7.1 -2.6 3.7 79 1.5 NW 44 54 24 29 991.7 991.7 4.0
03/07:54pm 7.0 -2.1 3.8 80 1.4 NW 41 54 22 29 991.5 991.5 4.0
03/07:30pm 6.7 1.2 4.0 83 1.2 WNW 22 33 12 18 991.5 991.5 4.0
03/07:00pm 6.8 -3.2 4.3 84 1.1 W 46 72 25 39 991.5 991.5 4.0
03/06:55pm 6.9 -3.5 4.0 82 1.2 W 48 72 26 39 991.5 991.5 3.8
03/06:52pm 7.4 -2.1 4.7 83 1.2 W 44 72 24 39 991.4 991.4 3.4
03/06:45pm 8.0 0.6 4.8 80 1.4 W 33 52 18 28 991.1 991.1 3.0
03/06:30pm 8.0 3.1 4.9 81 1.4 W 20 32 11 17 990.7 990.7 3.0
03/06:00pm 7.7 3.0 5.0 83 1.2 N 19 24 10 13 990.0 990.0 2.8
03/05:30pm 7.7 2.0 4.7 81 1.3 NNW 24 33 13 18 989.2 989.2 2.8
03/05:00pm 7.8 1.0 5.1 83 1.2 NW 30 43 16 23 988.1 988.1 2.8
03/04:35pm 8.5 1.8 5.4 81 1.4 WNW 30 50 16 27 988.4 988.4 2.0
03/04:30pm 8.6 3.0 5.4 80 1.4 NW 24 35 13 19 988.1 988.1 1.8
03/04:00pm 9.2 4.5 5.0 75 1.9 NW 19 37 10 20 987.7 987.7 1.2
03/03:30pm 8.9 2.1 4.9 76 1.8 WNW 30 46 16 25 987.7 987.7 1.2
03/03:13pm 10.0 4.8 5.6 74 2.0 NW 22 44 12 24 987.9 987.9 1.2
03/03:00pm 10.3 7.2 5.7 73 2.1 NW 11 17 6 9 987.9 987.9 1.2
03/02:30pm 10.2 5.9 5.4 72 2.2 NNW 17 24 9 13 987.4 987.4 1.2
03/02:00pm 10.1 6.5 4.9 70 2.4 NW 13 20 7 11 987.5 987.5 1.2
03/01:30pm 10.2 5.2 6.5 78 1.7 WNW 22 32 12 17 986.9 986.9 1.2
03/01:00pm 9.8 4.5 6.7 81 1.5 WNW 24 37 13 20 987.0 987.0 1.2
03/12:30pm 8.4 1.8 5.9 84 1.1 WNW 30 43 16 23 987.6 987.6 1.0
03/12:00pm 8.8 4.1 5.9 82 1.3 WNW 20 32 11 17 988.4 988.4 0.4
03/11:30am 9.7 2.6 6.2 79 1.6 WNW 33 43 18 23 988.9 988.9 0.0
03/11:00am 9.8 3.6 6.2 78 1.7 NW 28 35 15 19 988.5 988.5 0.0
03/10:30am 10.1 3.5 6.1 76 1.9 NW 30 39 16 21 988.3 988.3 0.0
03/10:00am 10.0 4.6 6.2 77 1.8 NW 24 37 13 20 987.5 987.5 0.0
03/09:30am 9.6 4.7 6.7 82 1.4 NNW 22 32 12 17 987.5 987.5 0.0
03/09:00am 9.9 2.8 6.6 80 1.6 NW 33 46 18 25 988.0 988.0 9.2
03/08:37am 10.1 2.0 7.2 82 1.4 WNW 39 57 21 31 988.0 988.0 9.2
03/08:30am 10.1 1.3 7.3 83 1.3 WNW 43 54 23 29 988.1 988.1 9.2
03/08:06am 10.7 5.0 8.5 86 1.1 W 28 46 15 25 987.9 987.9 9.0
03/08:00am 10.8 6.4 8.9 88 1.0 W 22 35 12 19 987.8 987.8 9.0
03/07:30am 11.4 8.5 9.8 90 0.8 WNW 15 26 8 14 987.4 987.4 8.8
03/07:00am 11.1 8.5 9.4 89 0.9 NNW 13 20 7 11 986.8 986.8 8.8
03/06:30am 10.8 7.0 9.1 89 0.8 N 19 28 10 15 986.6 986.6 8.4
03/06:00am 10.9 6.5 8.8 87 1.1 NW 22 28 12 15 986.6 986.6 8.2
03/05:30am 11.1 6.2 8.5 84 1.3 NW 24 35 13 19 986.9 986.9 7.8
03/05:26am 11.2 5.5 8.4 83 1.4 NW 28 46 15 25 986.9 986.9 7.8
03/05:00am 11.9 5.5 8.4 79 1.8 NW 32 46 17 25 986.3 986.3 7.0
03/04:30am 11.5 5.8 8.5 82 1.5 NW 28 43 15 23 986.7 986.7 7.0
03/04:15am 11.5 6.7 8.9 84 1.3 NNW 24 41 13 22 987.1 987.1 7.0
03/04:00am 11.2 8.2 9.1 87 1.1 N 15 20 8 11 987.3 987.3 7.0
03/03:30am 11.4 8.0 9.3 87 1.1 WNW 17 26 9 14 988.5 988.5 6.4
03/03:00am 11.4 6.7 9.3 87 1.1 WNW 24 35 13 19 988.1 988.1 6.2
03/02:48am 11.3 7.5 9.2 87 1.1 W 19 39 10 21 988.7 988.7 5.6
03/02:30am 11.1 10.2 9.2 88 1.0 SSE 4 15 2 8 988.7 988.7 5.2
03/02:00am 11.5 9.4 9.6 88 1.0 W 11 19 6 10 988.6 988.6 5.0
03/01:30am 11.7 6.3 9.6 87 1.1 W 28 37 15 20 988.7 988.7 4.4
03/01:14am 11.9 4.1 9.6 86 1.2 W 41 50 22 27 988.5 988.5 2.2
03/01:00am 12.0 1.0 9.0 82 1.5 W 57 70 31 38 988.0 988.0 1.2
03/12:45am 14.6 5.9 8.3 66 3.2 WNW 44 72 24 39 987.8 987.8 0.0
03/12:43am 15.6 7.5 8.6 63 3.6 WNW 41 56 22 30 987.8 987.8 0.0
03/12:30am 17.2 9.0 8.1 55 4.6 NW 41 61 22 33 987.4 987.4 0.0
03/12:00am 16.9 10.6 7.5 54 4.8 NW 30 56 16 30 987.2 987.2 0.0
 
Date/Time
EST
Temp
°C
App
Temp
°C
Dew
Point
Rel
Hum
%
Delta-T
°C
Wind Press
QNH
hPa
Press
MSL
hPa
Rain
since 9 am
mm
Dir
 
Spd
km/h
Gust
km/h
Spd
kts
Gust
kts
02/11:30pm 16.5 9.1 6.9 53 4.8 NW 35 56 19 30 987.0 987.0 0.0
02/11:10pm 16.5 10.0 6.6 52 4.9 NNW 30 52 16 28 987.4 987.4 0.0
02/11:00pm 16.3 10.2 6.7 53 4.8 NNW 28 44 15 24 987.8 987.8 0.0
02/10:31pm 15.7 9.6 6.4 54 4.5 NW 28 46 15 25 988.4 988.4 0.0
02/10:30pm 15.8 9.3 6.5 54 4.5 NW 30 46 16 25 988.4 988.4 0.0
02/10:00pm 15.6 9.5 6.6 55 4.5 NNW 28 41 15 22 988.6 988.6 0.0
02/09:30pm 15.9 9.7 6.3 53 4.7 NNW 28 43 15 23 989.3 989.3 0.0
02/09:00pm 15.6 10.2 6.3 54 4.6 NNW 24 37 13 20 989.8 989.8 0.0
02/08:30pm 15.2 9.8 6.5 56 4.2 NNW 24 41 13 22 990.4 990.4 0.0
02/08:00pm 14.8 9.6 7.1 60 3.8 NNW 24 41 13 22 990.9 990.9 0.0
02/07:30pm 14.9 10.1 7.2 60 3.8 NNW 22 37 12 20 992.2 992.2 0.0
02/07:00pm 15.0 9.4 7.1 59 3.9 NNW 26 39 14 21 992.4 992.4 0.0
02/06:30pm 14.8 10.3 7.1 60 3.8 NNW 20 35 11 19 992.9 992.9 0.0
02/06:00pm 14.4 9.6 7.5 63 3.4 NNW 22 30 12 16 993.4 993.4 0.0
02/05:30pm 14.5 10.0 6.8 60 3.8 NNW 20 37 11 20 993.5 993.5 0.0
02/05:00pm 14.9 8.8 6.7 58 4.0 NNW 28 50 15 27 993.6 993.6 0.0
02/04:30pm 14.8 9.8 6.6 58 4.0 NNW 22 37 12 20 993.9 993.9 0.0
02/04:00pm 14.9 9.9 6.5 57 4.1 NNW 22 37 12 20 994.6 994.6 0.0
02/03:30pm 15.2 9.5 6.5 56 4.2 NNW 26 41 14 22 994.9 994.9 0.0
02/03:09pm 15.2 8.1 6.5 56 4.2 NW 33 52 18 28 995.4 995.4 0.0
02/03:00pm 15.3 6.8 6.8 57 4.2 NW 41 56 22 30 995.4 995.4 0.0
02/02:30pm 15.1 6.9 6.7 57 4.1 NW 39 61 21 33 995.5 995.5 0.0
02/02:04pm 14.7 7.8 6.5 58 4.0 NW 32 52 17 28 995.9 995.9 0.0
02/02:00pm 14.5 8.0 6.6 59 3.9 NW 30 44 16 24 996.1 996.1 0.0
02/01:42pm 14.4 7.9 6.5 59 3.8 NW 30 52 16 28 996.6 996.6 0.0
02/01:30pm 14.4 8.7 6.5 59 3.8 NW 26 35 14 19 996.7 996.7 0.0
02/01:00pm 14.2 9.6 6.3 59 3.8 NNW 20 32 11 17 997.3 997.3 0.0
02/12:30pm 13.9 7.7 6.3 60 3.6 NW 28 39 15 21 997.9 997.9 0.0
02/12:00pm 13.1 8.5 6.7 65 3.1 NNW 20 33 11 18 998.8 998.9 0.0
02/11:30am 13.5 7.7 6.4 62 3.4 NNW 26 41 14 22 998.9 999.0 0.0
02/11:00am 13.6 8.4 5.7 59 3.8 NW 22 35 12 19 999.4 999.5 0.0
02/10:30am 14.3 8.0 5.9 57 4.0 NW 28 43 15 23 999.5 999.6 0.0
02/10:00am 12.7 5.6 5.6 62 3.4 NW 32 52 17 28 1000.0 1000.1 0.0
02/09:53am 12.6 7.0 5.3 61 3.4 NW 24 52 13 28 1000.0 1000.1 0.0
02/09:30am 12.0 8.3 6.1 67 2.8 NNW 15 20 8 11 1000.4 1000.5 0.0
02/09:00am 11.7 9.2 6.4 70 2.5 N 9 15 5 8 1000.8 1000.9 24.0
02/08:30am 10.9 7.5 5.7 70 2.4 N 13 30 7 16 1001.1 1001.2 24.0
02/08:00am 11.0 3.9 5.3 68 2.6 NW 32 54 17 29 1001.0 1001.1 24.0
02/07:58am 11.1 4.3 5.2 67 2.7 NW 30 54 16 29 1000.9 1001.0 24.0
02/07:30am 11.0 6.2 4.9 66 2.8 NW 19 33 10 18 1000.9 1001.0 24.0
02/07:00am 10.8 2.1 5.8 71 2.3 WNW 41 54 22 29 1000.6 1000.7 24.0
02/06:30am 10.4 3.7 5.4 71 2.3 WNW 30 41 16 22 1000.8 1000.9 24.0
02/06:00am 10.2 3.8 5.2 71 2.3 WNW 28 39 15 21 1001.0 1001.1 24.0
02/05:30am 9.6 2.5 5.4 75 1.9 WNW 32 41 17 22 1001.1 1001.2 24.0
02/05:00am 10.1 3.0 5.3 72 2.2 WNW 32 39 17 21 1000.9 1001.0 24.0
02/04:30am 9.9 2.8 5.5 74 2.0 WNW 32 44 17 24 1000.7 1000.8 24.0
02/04:12am 9.9 2.7 5.1 72 2.2 WNW 32 50 17 27 1000.5 1000.6 24.0
02/04:00am 10.0 3.6 5.0 71 2.3 WNW 28 39 15 21 1000.5 1000.6 24.0
02/03:30am 9.5 2.4 5.3 75 1.9 WNW 32 41 17 22 1000.5 1000.6 24.0
02/03:00am 9.0 1.8 5.0 76 1.8 NW 32 37 17 20 1000.6 1000.7 24.0
02/02:30am 9.8 1.3 5.0 72 2.2 WNW 39 50 21 27 1000.4 1000.5 24.0
02/02:00am 10.3 0.9 4.2 66 2.7 W 43 54 23 29 1000.1 1000.2 24.0
02/01:30am 9.9 0.5 4.5 69 2.4 W 43 52 23 28 999.9 1000.0 24.0
02/01:20am 9.9 0.4 4.7 70 2.3 W 44 56 24 30 1000.1 1000.2 24.0
02/01:00am 9.7 -3.0 4.9 72 2.2 W 61 80 33 43 999.6 999.7 24.0
02/12:47am 10.1 -1.0 4.5 68 2.5 W 52 72 28 39 999.5 999.6 24.0
02/12:30am 9.4 -2.5 5.2 75 1.9 W 57 70 31 38 999.5 999.6 24.0
02/12:08am 9.4 -1.9 5.4 76 1.8 W 54 72 29 39 999.2 999.3 24.0
02/12:00am 9.7 -0.8 5.5 75 1.9 W 50 63 27 34 999.3 999.4 24.0
 
Date/Time
EST
Temp
°C
App
Temp
°C
Dew
Point
Rel
Hum
%
Delta-T
°C
Wind Press
QNH
hPa
Press
MSL
hPa
Rain
since 9 am
mm
Dir
 
Spd
km/h
Gust
km/h
Spd
kts
Gust
kts
01/11:32pm 9.7 -2.7 4.5 70 2.3 W 59 78 32 42 998.9 999.0 24.0
01/11:30pm 9.8 -2.2 4.8 71 2.2 W 57 74 31 40 998.9 999.0 24.0
01/11:04pm 9.8 -1.2 5.2 73 2.1 W 52 74 28 40 999.0 999.1 24.0
01/11:00pm 9.7 -1.2 5.3 74 2.0 W 52 65 28 35 999.0 999.1 24.0
01/10:30pm 9.3 -1.1 6.0 80 1.5 W 50 69 27 37 999.1 999.2 24.0
01/10:00pm 9.8 -2.5 7.1 83 1.3 W 61 83 33 45 998.4 998.5 23.8
01/09:30pm 9.6 -3.4 7.2 85 1.1 W 65 91 35 49 997.9 997.9 23.8
01/09:00pm 9.7 -4.1 8.0 89 0.8 WSW 70 95 38 51 997.2 997.2 23.8
01/08:30pm 9.6 -5.3 8.0 90 0.8 WSW 76 100 41 54 996.2 996.2 23.6
01/08:00pm 10.0 -4.4 8.4 90 0.8 WSW 74 95 40 51 995.5 995.5 22.4
01/07:30pm 10.0 -3.4 8.8 92 0.6 W 69 89 37 48 994.9 994.9 21.0
01/07:00pm 10.4 -4.2 9.2 92 0.6 WSW 76 98 41 53 993.8 993.8 19.4
01/06:30pm 10.4 -5.0 9.2 92 0.6 WSW 80 98 43 53 992.1 992.1 16.8
01/06:00pm 11.7 -3.7 10.4 92 0.7 WSW 82 109 44 59 990.6 990.6 13.6
01/05:30pm 12.3 -1.8 11.0 92 0.7 WSW 76 102 41 55 988.8 988.8 11.4
01/05:21pm 12.3 2.0 10.9 91 0.7 WSW 56 91 30 49 988.7 988.7 10.8
01/05:20pm 12.1 2.1 10.7 91 0.7 WSW 54 91 29 49 988.6 988.6 10.8
01/05:17pm 12.6 3.9 11.2 91 0.7 W 48 78 26 42 988.7 988.7 10.2
01/05:00pm 12.4 4.8 10.6 89 0.9 W 41 54 22 29 988.4 988.4 7.2
01/04:51pm 12.4 5.6 10.6 89 0.9 W 37 56 20 30 988.1 988.1 6.8
01/04:30pm 12.4 6.5 10.6 89 0.9 WSW 32 44 17 24 987.8 987.8 6.0
01/04:00pm 13.0 9.6 11.4 90 0.9 WSW 20 26 11 14 987.8 987.8 5.4
01/03:30pm 13.2 10.1 11.6 90 0.9 WSW 19 24 10 13 987.6 987.6 5.2
01/03:00pm 13.7 11.1 11.9 89 1.0 WSW 17 20 9 11 987.5 987.5 5.2
01/02:30pm 14.4 12.4 12.6 89 1.0 W 15 19 8 10 987.6 987.6 5.2
01/02:00pm 13.8 11.6 12.0 89 1.0 WSW 15 20 8 11 988.0 988.0 5.2
01/01:30pm 14.1 12.4 12.3 89 1.0 WSW 13 15 7 8 988.6 988.6 5.2
01/01:00pm 14.2 13.3 12.6 90 0.9 W 9 13 5 7 989.2 989.2 5.2
01/12:30pm 13.7 12.7 12.3 91 0.8 E 9 13 5 7 990.1 990.1 5.2
01/12:00pm 13.7 12.7 12.4 92 0.7 E 9 11 5 6 990.8 990.8 5.2
01/11:30am 13.3 12.2 12.0 92 0.7 ESE 9 11 5 6 991.3 991.3 5.2
01/11:00am 13.3 12.6 12.0 92 0.7 ENE 7 9 4 5 992.5 992.5 5.2
01/10:30am 13.0 11.8 11.7 92 0.7 E 9 13 5 7 993.6 993.6 4.8
01/10:00am 12.8 11.9 11.5 92 0.7 NE 7 11 4 6 994.7 994.7 4.0
01/09:30am 12.8 11.5 11.4 91 0.7 W 9 11 5 6 995.3 995.3 2.4
01/09:00am 12.9 10.9 11.5 91 0.7 WNW 13 17 7 9 996.5 996.5 8.0
01/08:33am 12.8 7.9 11.2 90 0.8 NW 28 46 15 25 997.1 997.1 5.8
01/08:30am 12.9 7.2 11.1 89 0.9 WNW 32 46 17 25 996.9 996.9 5.4
01/08:25am 13.1 8.2 11.2 88 1.0 WNW 28 46 15 25 997.0 997.0 3.6
01/08:00am 14.1 12.7 12.1 88 1.1 NNW 11 15 6 8 996.2 996.2 1.4
01/07:30am 14.1 12.6 12.0 87 1.1 ENE 11 15 6 8 996.7 996.7 1.4
01/07:00am 14.4 12.2 12.1 86 1.3 NNE 15 22 8 12 997.3 997.3 1.2
01/06:30am 14.2 12.6 11.5 84 1.4 N 11 15 6 8 998.3 998.3 0.8

Other Formats:

Comma delimited format used in spreadsheet applications
http://www.bom.gov.au/fwo/IDT60801/IDT60801.95967.axf

JavaScript Object Notation format (JSON) in row-major order
http://www.bom.gov.au/fwo/IDT60801/IDT60801.95967.json